createdAt,value
2023-04-18T00:02:17.487Z,102732.53
2023-04-18T00:04:46.401Z,102734.81
2023-04-18T00:07:17.662Z,102728.88
2023-04-18T00:09:45.523Z,102736.34
2023-04-18T00:12:12.976Z,102733.22
2023-04-18T00:14:41.007Z,102736.44
2023-04-18T00:17:09.100Z,102731.22
2023-04-18T00:19:37.672Z,102741.84
2023-04-18T00:22:05.088Z,102735.13
2023-04-18T00:24:32.656Z,102731.63
2023-04-18T00:27:00.068Z,102738.50
2023-04-18T00:29:27.469Z,102728.25
2023-04-18T00:31:54.932Z,102737.81
2023-04-18T00:34:22.332Z,102742.47
2023-04-18T00:36:49.742Z,102729.88
2023-04-18T00:39:17.095Z,102730.44
2023-04-18T00:41:44.520Z,102739.78
2023-04-18T00:44:12.096Z,102728.38
2023-04-18T00:46:39.659Z,102734.75
2023-04-18T00:49:07.436Z,102729.16
2023-04-18T00:51:35.814Z,102734.88
2023-04-18T00:54:04.723Z,102730.91
2023-04-18T00:56:32.093Z,102736.34
2023-04-18T00:58:59.611Z,102735.72
2023-04-18T01:01:27.016Z,102729.75
2023-04-18T01:03:54.518Z,102726.41
2023-04-18T01:06:22.781Z,102738.03
2023-04-18T01:08:50.295Z,102737.03
2023-04-18T01:11:17.712Z,102726.44
2023-04-18T01:13:58.827Z,102729.13
2023-04-18T01:16:27.150Z,102728.72
2023-04-18T01:18:54.650Z,102726.16
2023-04-18T01:21:22.496Z,102723.09
2023-04-18T01:23:49.947Z,102720.41
2023-04-18T01:26:17.479Z,102717.66
2023-04-18T01:28:44.851Z,102723.84
2023-04-18T01:31:12.263Z,102716.66
2023-04-18T01:33:39.710Z,102717.22
2023-04-18T01:36:07.253Z,102710.34
2023-04-18T01:38:34.708Z,102711.38
2023-04-18T01:41:02.268Z,102713.59
2023-04-18T01:43:29.606Z,102720.34
2023-04-18T01:45:57.057Z,102719.22
2023-04-18T01:48:24.478Z,102711.00
2023-04-18T01:50:51.827Z,102722.00
2023-04-18T01:53:19.196Z,102710.38
2023-04-18T01:55:46.549Z,102704.53
2023-04-18T01:58:15.428Z,102722.47
2023-04-18T02:00:43.001Z,102716.81
2023-04-18T02:03:10.765Z,102711.34
2023-04-18T02:05:38.333Z,102710.28
2023-04-18T02:08:05.773Z,102717.75
2023-04-18T02:10:33.147Z,102718.72
2023-04-18T02:13:00.531Z,102721.63
2023-04-18T02:15:27.930Z,102716.44
2023-04-18T02:17:55.671Z,102711.25
2023-04-18T02:20:23.162Z,102710.22
2023-04-18T02:22:50.561Z,102712.34
2023-04-18T02:25:18.526Z,102714.06
2023-04-18T02:27:45.951Z,102711.31
2023-04-18T02:30:13.461Z,102712.09
2023-04-18T02:32:40.887Z,102710.44
2023-04-18T02:35:08.494Z,102708.03
2023-04-18T02:37:35.898Z,102700.38
2023-04-18T02:40:04.010Z,102701.91
2023-04-18T02:42:31.774Z,102710.34
2023-04-18T02:44:59.195Z,102698.59
2023-04-18T02:47:26.609Z,102703.47
2023-04-18T02:49:54.042Z,102704.94
2023-04-18T02:52:21.457Z,102700.06
2023-04-18T02:54:48.899Z,102707.19
2023-04-18T02:57:16.313Z,102697.16
2023-04-18T02:59:43.689Z,102712.50
2023-04-18T03:02:11.112Z,102708.97
2023-04-18T03:04:38.665Z,102713.47
2023-04-18T03:07:06.132Z,102706.72
2023-04-18T03:09:33.520Z,102705.56
2023-04-18T03:12:02.141Z,102707.59
2023-04-18T03:14:29.580Z,102706.63
2023-04-18T03:16:57.001Z,102702.50
2023-04-18T03:19:24.496Z,102703.28
2023-04-18T03:21:51.849Z,102699.84
2023-04-18T03:24:19.230Z,102703.81
2023-04-18T03:26:46.965Z,102703.81
2023-04-18T03:29:14.384Z,102710.22
2023-04-18T03:31:41.865Z,102705.56
2023-04-18T03:34:09.314Z,102696.56
2023-04-18T03:36:36.808Z,102715.47
2023-04-18T03:39:04.372Z,102704.75
2023-04-18T03:41:31.816Z,102710.31
2023-04-18T03:43:59.167Z,102716.69
2023-04-18T03:46:26.853Z,102711.13
2023-04-18T03:48:54.274Z,102714.09
2023-04-18T03:51:21.622Z,102718.06
2023-04-18T03:53:49.021Z,102719.66
2023-04-18T03:56:16.400Z,102718.78
2023-04-18T03:58:43.879Z,102720.53
2023-04-18T04:01:12.866Z,102712.88
2023-04-18T04:03:40.480Z,102719.91
2023-04-18T04:06:08.125Z,102724.72
2023-04-18T04:08:35.506Z,102722.00
2023-04-18T04:11:02.962Z,102720.94
2023-04-18T04:13:30.412Z,102719.25
2023-04-18T04:15:57.975Z,102727.38
2023-04-18T04:18:31.012Z,102723.84
2023-04-18T04:20:58.981Z,102724.59
2023-04-18T04:23:26.824Z,102714.34
2023-04-18T04:25:54.747Z,102720.13
2023-04-18T04:28:22.713Z,102722.06
2023-04-18T04:30:53.851Z,102726.22
2023-04-18T04:33:21.773Z,102725.44
2023-04-18T04:35:49.818Z,102733.41
2023-04-18T04:38:19.971Z,102734.53
2023-04-18T04:40:47.414Z,102731.47
2023-04-18T04:43:15.616Z,102731.63
2023-04-18T04:45:44.633Z,102727.06
2023-04-18T04:48:12.130Z,102728.63
2023-04-18T04:50:39.952Z,102732.88
2023-04-18T04:53:07.369Z,102731.13
2023-04-18T04:55:35.333Z,102742.81
2023-04-18T04:58:02.739Z,102734.28
2023-04-18T05:00:30.220Z,102741.69
2023-04-18T05:02:58.355Z,102737.75
2023-04-18T05:05:25.858Z,102742.19
2023-04-18T05:07:53.304Z,102743.41
2023-04-18T05:10:21.071Z,102742.00
2023-04-18T05:12:48.533Z,102740.06
2023-04-18T05:15:16.910Z,102733.63
2023-04-18T05:17:44.352Z,102758.19
2023-04-18T05:20:11.981Z,102747.00
2023-04-18T05:22:39.352Z,102748.53
2023-04-18T05:25:07.021Z,102736.72
2023-04-18T05:27:34.427Z,102738.16
2023-04-18T05:30:01.910Z,102744.59
2023-04-18T05:32:29.272Z,102746.47
2023-04-18T05:34:57.174Z,102749.09
2023-04-18T05:37:24.573Z,102749.88
2023-04-18T05:39:52.028Z,102767.00
2023-04-18T05:42:19.455Z,102745.63
2023-04-18T05:44:46.797Z,102760.50
2023-04-18T05:47:14.204Z,102758.69
2023-04-18T05:49:41.617Z,102770.63
2023-04-18T05:52:09.075Z,102769.47
2023-04-18T05:54:36.487Z,102767.56
2023-04-18T05:57:04.767Z,102771.34
2023-04-18T05:59:32.397Z,102767.41
2023-04-18T06:01:59.911Z,102771.25
2023-04-18T06:04:27.673Z,102768.13
2023-04-18T06:06:55.291Z,102768.50
2023-04-18T06:09:22.669Z,102781.84
2023-04-18T06:11:50.109Z,102771.97
2023-04-18T06:14:17.549Z,102775.31
2023-04-18T06:16:44.966Z,102764.66
2023-04-18T06:19:12.396Z,102764.69
2023-04-18T06:21:41.995Z,102768.16
2023-04-18T06:24:09.725Z,102773.03
2023-04-18T06:26:37.196Z,102766.03
2023-04-18T06:29:04.624Z,102779.69
2023-04-18T06:31:32.091Z,102775.78
2023-04-18T06:33:59.550Z,102776.78
2023-04-18T06:36:27.391Z,102783.41
2023-04-18T06:38:54.966Z,102781.34
2023-04-18T06:41:22.731Z,102784.16
2023-04-18T06:44:02.768Z,102784.47
2023-04-18T06:46:31.930Z,102789.28
2023-04-18T06:48:59.415Z,102786.81
2023-04-18T06:51:27.286Z,102795.84
2023-04-18T06:53:54.616Z,102792.00
2023-04-18T06:56:22.444Z,102783.50
2023-04-18T06:58:52.797Z,102791.56
2023-04-18T07:01:20.772Z,102787.47
2023-04-18T07:03:48.325Z,102788.28
2023-04-18T07:06:16.105Z,102778.56
2023-04-18T07:08:43.814Z,102790.19
2023-04-18T07:11:13.218Z,102788.06
2023-04-18T07:13:40.657Z,102784.47
2023-04-18T07:16:08.227Z,102793.63
2023-04-18T07:18:38.386Z,102799.84
2023-04-18T07:21:07.828Z,102794.28
2023-04-18T07:23:35.535Z,102791.94
2023-04-18T07:26:03.251Z,102794.81
2023-04-18T07:28:32.124Z,102786.63
2023-04-18T07:30:59.823Z,102788.75
2023-04-18T07:33:27.986Z,102795.44
2023-04-18T07:35:55.797Z,102802.69
2023-04-18T07:38:23.226Z,102793.41
2023-04-18T07:40:57.576Z,102792.00
2023-04-18T07:43:25.063Z,102792.28
2023-04-18T07:45:53.137Z,102793.75
2023-04-18T07:48:22.136Z,102785.28
2023-04-18T07:50:50.186Z,102788.94
2023-04-18T07:53:17.665Z,102785.28
2023-04-18T07:55:46.601Z,102784.13
2023-04-18T07:58:14.113Z,102795.50
2023-04-18T08:00:42.977Z,102792.56
2023-04-18T08:03:12.268Z,102785.34
2023-04-18T08:05:40.719Z,102782.59
2023-04-18T08:08:08.895Z,102775.00
2023-04-18T08:10:36.815Z,102778.28
2023-04-18T08:13:04.679Z,102790.25
2023-04-18T08:15:32.856Z,102782.66
2023-04-18T08:18:00.648Z,102782.34
2023-04-18T08:20:28.558Z,102777.34
2023-04-18T08:25:28.348Z,102790.63
2023-04-18T08:27:56.614Z,102777.59
2023-04-18T08:30:24.457Z,102785.00
2023-04-18T08:32:52.425Z,102789.25
2023-04-18T08:35:20.238Z,102797.66
2023-04-18T08:37:47.668Z,102783.19
2023-04-18T08:40:15.136Z,102780.63
2023-04-18T08:42:44.099Z,102787.75
2023-04-18T08:45:13.724Z,102781.75
2023-04-18T08:47:44.013Z,102792.38
2023-04-18T08:50:12.707Z,102776.53
2023-04-18T08:52:41.267Z,102782.72
2023-04-18T08:55:09.434Z,102781.03
2023-04-18T08:57:36.833Z,102780.50
2023-04-18T09:00:09.949Z,102769.50
2023-04-18T09:02:42.498Z,102775.22
2023-04-18T09:05:20.032Z,102764.16
2023-04-18T09:07:51.446Z,102770.09
2023-04-18T09:10:32.864Z,102770.66
2023-04-18T09:13:03.183Z,102770.50
2023-04-18T09:15:31.046Z,102770.88
2023-04-18T09:18:00.065Z,102769.13
2023-04-18T09:20:42.040Z,102785.88
2023-04-18T09:23:11.494Z,102768.88
2023-04-18T09:25:45.260Z,102776.84
2023-04-18T09:28:23.529Z,102782.72
2023-04-18T09:30:52.376Z,102777.00
2023-04-18T09:33:28.215Z,102767.88
2023-04-18T09:35:56.244Z,102765.50
2023-04-18T09:38:39.607Z,102775.28
2023-04-18T09:41:10.778Z,102757.53
2023-04-18T09:43:38.296Z,102764.66
2023-04-18T09:46:06.155Z,102750.38
2023-04-18T09:48:33.592Z,102753.56
2023-04-18T09:51:05.751Z,102763.13
2023-04-18T09:53:34.056Z,102748.19
2023-04-18T09:56:01.844Z,102757.84
2023-04-18T09:58:33.309Z,102768.88
2023-04-18T10:01:01.473Z,102765.47
2023-04-18T10:03:34.532Z,102753.63
2023-04-18T10:06:02.183Z,102760.13
2023-04-18T10:08:29.663Z,102760.19
2023-04-18T10:10:58.670Z,102755.00
2023-04-18T10:13:27.471Z,102766.56
2023-04-18T10:15:55.878Z,102757.94
2023-04-18T10:18:24.286Z,102752.38
2023-04-18T10:20:51.790Z,102755.84
2023-04-18T10:23:38.875Z,102757.84
2023-04-18T10:26:10.015Z,102763.22
2023-04-18T10:28:57.823Z,102752.38
2023-04-18T10:31:26.876Z,102756.69
2023-04-18T10:34:04.711Z,102751.63
2023-04-18T10:36:33.324Z,102748.25
2023-04-18T10:39:20.727Z,102755.81
2023-04-18T10:41:51.658Z,102747.38
2023-04-18T10:44:20.591Z,102754.09
2023-04-18T10:46:53.809Z,102756.50
2023-04-18T10:49:24.475Z,102749.59
2023-04-18T10:51:56.096Z,102749.25
2023-04-18T10:54:30.846Z,102749.56
2023-04-18T10:56:59.356Z,102740.38
2023-04-18T10:59:27.419Z,102743.50
2023-04-18T11:01:59.871Z,102745.16
2023-04-18T11:04:27.428Z,102741.09
2023-04-18T11:06:57.312Z,102742.81
2023-04-18T11:09:25.552Z,102738.50
2023-04-18T11:12:12.230Z,102727.97
2023-04-18T11:14:47.517Z,102726.94
2023-04-18T11:17:25.509Z,102720.97
2023-04-18T11:20:00.896Z,102723.56
2023-04-18T11:22:28.457Z,102720.63
2023-04-18T11:25:02.116Z,102716.56
2023-04-18T11:27:30.350Z,102709.66
2023-04-18T11:29:58.191Z,102716.88
2023-04-18T11:32:25.742Z,102702.69
2023-04-18T11:34:54.477Z,102725.22
2023-04-18T11:37:22.384Z,102715.53
2023-04-18T11:39:49.859Z,102724.19
2023-04-18T11:42:17.235Z,102713.66
2023-04-18T11:44:46.589Z,102726.09
2023-04-18T11:47:23.798Z,102715.78
2023-04-18T11:49:57.299Z,102711.59
2023-04-18T11:52:25.166Z,102713.38
2023-04-18T11:54:52.535Z,102711.06
2023-04-18T11:57:21.652Z,102718.91
2023-04-18T11:59:52.829Z,102715.47
2023-04-18T12:02:21.054Z,102716.91
2023-04-18T12:04:52.975Z,102708.09
2023-04-18T12:07:36.117Z,102713.63
2023-04-18T12:10:05.329Z,102716.84
2023-04-18T12:12:32.915Z,102726.31
2023-04-18T12:15:05.027Z,102722.84
2023-04-18T12:17:32.489Z,102722.84
2023-04-18T12:20:03.985Z,102734.06
2023-04-18T12:22:38.543Z,102719.75
2023-04-18T12:25:27.367Z,102727.59
2023-04-18T12:28:03.543Z,102719.63
2023-04-18T12:30:31.079Z,102725.38
2023-04-18T12:33:00.020Z,102719.28
2023-04-18T12:35:27.805Z,102720.31
2023-04-18T12:37:56.350Z,102717.16
2023-04-18T12:40:26.191Z,102710.97
2023-04-18T12:42:54.152Z,102717.81
2023-04-18T12:45:22.500Z,102721.94
2023-04-18T12:47:51.228Z,102713.47
2023-04-18T12:50:22.711Z,102704.63
2023-04-18T12:52:50.366Z,102702.16
2023-04-18T12:55:17.766Z,102704.91
2023-04-18T12:57:45.206Z,102695.28
2023-04-18T13:00:13.689Z,102703.16
2023-04-18T13:02:43.928Z,102696.09
2023-04-18T13:05:13.095Z,102704.84
2023-04-18T13:07:42.707Z,102697.63
2023-04-18T13:10:20.424Z,102694.41
2023-04-18T13:12:48.128Z,102704.94
2023-04-18T13:15:15.888Z,102689.28
2023-04-18T13:17:43.371Z,102702.34
2023-04-18T13:20:12.459Z,102704.09
2023-04-18T13:22:41.018Z,102697.94
2023-04-18T13:25:10.441Z,102697.94
2023-04-18T13:27:41.307Z,102690.97
2023-04-18T13:30:10.026Z,102694.44
2023-04-18T13:32:39.167Z,102698.91
2023-04-18T13:35:09.019Z,102699.75
2023-04-18T13:37:36.659Z,102693.56
2023-04-18T13:40:05.501Z,102694.47
2023-04-18T13:42:33.495Z,102691.78
2023-04-18T13:45:00.962Z,102704.09
2023-04-18T13:47:28.533Z,102700.63
2023-04-18T13:49:56.149Z,102697.13
2023-04-18T13:52:23.535Z,102713.41
2023-04-18T13:54:51.003Z,102694.97
2023-04-18T13:57:18.447Z,102702.22
2023-04-18T13:59:45.817Z,102691.72
2023-04-18T14:02:13.296Z,102699.66
2023-04-18T14:04:40.934Z,102690.06
2023-04-18T14:07:09.044Z,102692.66
2023-04-18T14:09:36.509Z,102690.13
2023-04-18T14:12:04.004Z,102691.78
2023-04-18T14:14:31.532Z,102689.25
2023-04-18T14:16:58.934Z,102686.59
2023-04-18T14:19:27.649Z,102684.88
2023-04-18T14:21:55.085Z,102685.75
2023-04-18T14:24:22.530Z,102690.16
2023-04-18T14:26:49.948Z,102691.88
2023-04-18T14:29:17.441Z,102684.00
2023-04-18T14:31:44.996Z,102679.59
2023-04-18T14:34:12.515Z,102688.38
2023-04-18T14:36:40.178Z,102680.50
2023-04-18T14:39:08.388Z,102673.53
2023-04-18T14:41:35.869Z,102679.63
2023-04-18T14:44:03.984Z,102677.88
2023-04-18T14:46:31.517Z,102672.59
2023-04-18T14:48:58.961Z,102673.34
2023-04-18T14:51:26.431Z,102677.00
2023-04-18T14:53:53.911Z,102675.25
2023-04-18T14:56:23.582Z,102675.22
2023-04-18T14:58:51.135Z,102677.88
2023-04-18T15:01:18.648Z,102664.75
2023-04-18T15:03:46.438Z,102663.88
2023-04-18T15:06:13.950Z,102669.94
2023-04-18T15:08:41.594Z,102659.50
2023-04-18T15:11:09.025Z,102665.59
2023-04-18T15:13:36.636Z,102656.63
2023-04-18T15:16:04.419Z,102648.81
2023-04-18T15:18:31.875Z,102655.97
2023-04-18T15:21:02.202Z,102654.25
2023-04-18T15:23:29.650Z,102654.22
2023-04-18T15:25:57.081Z,102649.75
2023-04-18T15:28:24.523Z,102660.34
2023-04-18T15:30:52.018Z,102655.97
2023-04-18T15:33:20.410Z,102647.25
2023-04-18T15:35:50.632Z,102649.91
2023-04-18T15:38:17.988Z,102643.75
2023-04-18T15:40:45.461Z,102646.31
2023-04-18T15:43:13.729Z,102631.38
2023-04-18T15:45:41.202Z,102638.28
2023-04-18T15:48:09.992Z,102636.38
2023-04-18T15:50:37.647Z,102638.44
2023-04-18T15:53:04.987Z,102635.88
2023-04-18T15:55:32.404Z,102628.78
2023-04-18T15:58:00.012Z,102627.97
2023-04-18T16:00:27.474Z,102645.47
2023-04-18T16:02:55.039Z,102636.72
2023-04-18T16:05:22.602Z,102633.19
2023-04-18T16:07:50.019Z,102628.88
2023-04-18T16:10:17.504Z,102636.78
2023-04-18T16:12:45.053Z,102642.88
2023-04-18T16:15:12.771Z,102643.75
2023-04-18T16:17:40.282Z,102640.25
2023-04-18T16:20:08.967Z,102629.63
2023-04-18T16:22:36.721Z,102633.16
2023-04-18T16:25:04.981Z,102634.97
2023-04-18T16:27:32.514Z,102633.19
2023-04-18T16:29:59.915Z,102628.81
2023-04-18T16:32:27.495Z,102622.72
2023-04-18T16:34:55.065Z,102630.56
2023-04-18T16:37:22.554Z,102630.63
2023-04-18T16:39:50.012Z,102633.16
2023-04-18T16:42:17.465Z,102639.34
2023-04-18T16:44:45.839Z,102638.53
2023-04-18T16:47:13.244Z,102629.66
2023-04-18T16:49:41.135Z,102635.72
2023-04-18T16:52:08.544Z,102634.09
2023-04-18T16:54:36.030Z,102635.03
2023-04-18T16:57:03.411Z,102634.97
2023-04-18T16:59:30.879Z,102627.97
2023-04-18T17:01:58.332Z,102625.38
2023-04-18T17:04:26.927Z,102624.50
2023-04-18T17:06:54.626Z,102624.50
2023-04-18T17:09:22.030Z,102619.28
2023-04-18T17:11:49.850Z,102626.25
2023-04-18T17:14:18.299Z,102637.63
2023-04-18T17:16:46.086Z,102629.75
2023-04-18T17:19:13.940Z,102636.75
2023-04-18T17:21:41.652Z,102637.63
2023-04-18T17:24:09.251Z,102622.72
2023-04-18T17:26:37.939Z,102631.38
2023-04-18T17:29:05.539Z,102641.97
2023-04-18T17:31:33.320Z,102634.13
2023-04-18T17:34:01.256Z,102628.00
2023-04-18T17:36:28.658Z,102627.09
2023-04-18T17:38:56.355Z,102629.75
2023-04-18T17:41:23.787Z,102631.47
2023-04-18T17:43:51.768Z,102639.31
2023-04-18T17:46:19.176Z,102638.47
2023-04-18T17:48:47.032Z,102635.00
2023-04-18T17:51:16.210Z,102635.88
2023-04-18T17:53:43.622Z,102638.53
2023-04-18T17:56:11.318Z,102637.63
2023-04-18T17:58:38.729Z,102645.50
2023-04-18T18:01:14.947Z,102648.09
2023-04-18T18:03:42.673Z,102636.75
2023-04-18T18:06:12.619Z,102639.38
2023-04-18T18:08:40.027Z,102641.97
2023-04-18T18:11:07.388Z,102647.25
2023-04-18T18:13:35.327Z,102645.50
2023-04-18T18:16:03.180Z,102650.75
2023-04-18T18:18:31.427Z,102647.25
2023-04-18T18:20:59.107Z,102643.75
2023-04-18T18:23:26.531Z,102648.97
2023-04-18T18:25:53.986Z,102642.00
2023-04-18T18:28:21.458Z,102649.00
2023-04-18T18:30:48.849Z,102642.81
2023-04-18T18:33:16.319Z,102650.72
2023-04-18T18:35:43.743Z,102650.75
2023-04-18T18:38:11.350Z,102656.78
2023-04-18T18:40:38.963Z,102650.72
2023-04-18T18:43:06.406Z,102647.22
2023-04-18T18:45:36.324Z,102648.84
2023-04-18T18:48:04.491Z,102649.78
2023-04-18T18:50:31.868Z,102651.50
2023-04-18T18:53:01.734Z,102661.97
2023-04-18T18:55:29.596Z,102661.94
2023-04-18T18:57:57.099Z,102655.81
2023-04-18T19:00:24.828Z,102668.00
2023-04-18T19:02:52.585Z,102667.16
2023-04-18T19:05:21.131Z,102673.28
2023-04-18T19:07:49.109Z,102673.28
2023-04-18T19:10:16.510Z,102679.31
2023-04-18T19:12:44.008Z,102674.09
2023-04-18T19:15:11.703Z,102683.63
2023-04-18T19:17:39.158Z,102688.94
2023-04-18T19:20:06.888Z,102682.72
2023-04-18T19:22:34.326Z,102684.38
2023-04-18T19:25:01.755Z,102695.69
2023-04-18T19:27:29.271Z,102690.28
2023-04-18T19:29:56.683Z,102699.19
2023-04-18T19:32:24.084Z,102693.88
2023-04-18T19:34:51.993Z,102688.69
2023-04-18T19:37:19.390Z,102699.19
2023-04-18T19:39:46.789Z,102695.56
2023-04-18T19:42:14.216Z,102707.75
2023-04-18T19:44:41.750Z,102705.88
2023-04-18T19:47:09.157Z,102705.78
2023-04-18T19:49:36.520Z,102704.09
2023-04-18T19:52:04.078Z,102704.00
2023-04-18T19:54:34.536Z,102704.94
2023-04-18T19:57:02.710Z,102706.59
2023-04-18T19:59:30.067Z,102706.59
2023-04-18T20:02:00.541Z,102717.22
2023-04-18T20:04:31.447Z,102713.66
2023-04-18T20:06:59.103Z,102719.94
2023-04-18T20:09:26.819Z,102719.97
2023-04-18T20:11:54.283Z,102720.78
2023-04-18T20:14:21.841Z,102723.09
2023-04-18T20:16:49.949Z,102717.53
2023-04-18T20:19:17.798Z,102721.34
2023-04-18T20:21:45.354Z,102719.41
2023-04-18T20:24:13.589Z,102726.25
2023-04-18T20:26:40.942Z,102731.47
2023-04-18T20:29:08.450Z,102726.97
2023-04-18T20:31:37.643Z,102729.53
2023-04-18T20:34:05.154Z,102743.69
2023-04-18T20:36:34.308Z,102735.75
2023-04-18T20:39:02.524Z,102733.75
2023-04-18T20:41:31.029Z,102741.56
2023-04-18T20:43:59.919Z,102733.63
2023-04-18T20:46:27.388Z,102741.63
2023-04-18T20:48:54.796Z,102740.63
2023-04-18T20:51:22.160Z,102745.09
2023-04-18T20:53:49.590Z,102743.34
2023-04-18T20:56:16.992Z,102751.44
2023-04-18T20:58:44.428Z,102752.63
2023-04-18T21:01:12.074Z,102760.72
2023-04-18T21:03:39.674Z,102757.09
2023-04-18T21:06:07.162Z,102753.72
2023-04-18T21:08:37.767Z,102762.22
2023-04-18T21:11:05.144Z,102757.31
2023-04-18T21:13:32.990Z,102756.34
2023-04-18T21:16:02.419Z,102758.28
2023-04-18T21:18:30.329Z,102759.56
2023-04-18T21:20:57.754Z,102760.31
2023-04-18T21:23:25.201Z,102760.00
2023-04-18T21:25:52.619Z,102758.56
2023-04-18T21:28:20.417Z,102757.69
2023-04-18T21:30:47.957Z,102756.72
2023-04-18T21:33:15.723Z,102763.78
2023-04-18T21:35:43.219Z,102766.22
2023-04-18T21:38:10.741Z,102764.47
2023-04-18T21:40:38.465Z,102768.91
2023-04-18T21:43:05.853Z,102762.03
2023-04-18T21:45:33.731Z,102766.66
2023-04-18T21:48:01.322Z,102770.72
2023-04-18T21:50:28.778Z,102765.41
2023-04-18T21:52:56.211Z,102765.84
2023-04-18T21:55:23.701Z,102765.81
2023-04-18T21:57:51.069Z,102761.50
2023-04-18T22:00:19.030Z,102769.53
2023-04-18T22:02:47.068Z,102766.38
2023-04-18T22:05:16.193Z,102774.47
2023-04-18T22:07:56.982Z,102765.25
2023-04-18T22:10:25.790Z,102765.25
2023-04-18T22:12:54.095Z,102764.44
2023-04-18T22:15:21.585Z,102773.03
2023-04-18T22:17:51.985Z,102767.59
2023-04-18T22:20:19.563Z,102758.25
2023-04-18T22:22:46.991Z,102761.63
2023-04-18T22:25:14.398Z,102761.31
2023-04-18T22:27:42.581Z,102763.72
2023-04-18T22:30:10.322Z,102753.38
2023-04-18T22:32:37.948Z,102760.56
2023-04-18T22:35:05.597Z,102763.25
2023-04-18T22:37:33.160Z,102757.13
2023-04-18T22:40:00.596Z,102756.53
2023-04-18T22:42:29.738Z,102762.28
2023-04-18T22:44:57.413Z,102757.59
2023-04-18T22:47:24.858Z,102773.53
2023-04-18T22:49:52.276Z,102765.81
2023-04-18T22:52:20.276Z,102773.28
2023-04-18T22:54:47.691Z,102769.97
2023-04-18T22:57:15.221Z,102775.16
2023-04-18T22:59:42.782Z,102774.72
2023-04-18T23:02:11.224Z,102775.03
2023-04-18T23:04:39.966Z,102775.25
2023-04-18T23:07:07.465Z,102774.44
2023-04-18T23:09:34.866Z,102778.25
2023-04-18T23:12:02.396Z,102778.19
2023-04-18T23:14:30.129Z,102781.72
2023-04-18T23:16:57.531Z,102781.91
2023-04-18T23:19:24.918Z,102780.00
2023-04-18T23:21:52.270Z,102777.59
2023-04-18T23:24:19.647Z,102780.69
2023-04-18T23:26:47.209Z,102777.53
2023-04-18T23:29:14.570Z,102777.31
2023-04-18T23:31:41.946Z,102782.66
2023-04-18T23:34:10.855Z,102790.16
2023-04-18T23:36:40.404Z,102786.59
2023-04-18T23:39:08.602Z,102785.00
2023-04-18T23:41:36.022Z,102791.69
2023-04-18T23:44:03.471Z,102785.66
2023-04-18T23:46:31.006Z,102783.38
2023-04-18T23:48:58.401Z,102776.38
2023-04-18T23:51:26.141Z,102782.03
2023-04-18T23:53:53.589Z,102778.31
2023-04-18T23:56:21.708Z,102774.06
2023-04-18T23:58:49.048Z,102770.88
